sensor_id;sensor_type;location;lat;lon;timestamp;P1;durP1;ratioP1;P2;durP2;ratioP2
19026;SDS011;9646;52.034;5.554;2022-10-04T00:02:01;9.63;;;5.20;;
19026;SDS011;9646;52.034;5.554;2022-10-04T00:04:31;9.50;;;5.35;;
19026;SDS011;9646;52.034;5.554;2022-10-04T00:06:59;15.35;;;5.68;;
19026;SDS011;9646;52.034;5.554;2022-10-04T00:09:29;9.73;;;5.70;;
19026;SDS011;9646;52.034;5.554;2022-10-04T00:11:57;8.75;;;5.22;;
19026;SDS011;9646;52.034;5.554;2022-10-04T00:14:27;10.00;;;5.15;;
19026;SDS011;9646;52.034;5.554;2022-10-04T00:16:56;13.93;;;5.75;;
19026;SDS011;9646;52.034;5.554;2022-10-04T00:19:35;11.50;;;5.95;;
19026;SDS011;9646;52.034;5.554;2022-10-04T00:22:10;11.55;;;5.97;;
19026;SDS011;9646;52.034;5.554;2022-10-04T00:24:39;11.48;;;5.80;;
19026;SDS011;9646;52.034;5.554;2022-10-04T00:27:25;12.73;;;5.60;;
19026;SDS011;9646;52.034;5.554;2022-10-04T00:32:44;11.77;;;6.55;;
19026;SDS011;9646;52.034;5.554;2022-10-04T00:37:56;11.82;;;6.32;;
19026;SDS011;9646;52.034;5.554;2022-10-04T00:40:23;12.63;;;6.85;;
19026;SDS011;9646;52.034;5.554;2022-10-04T00:42:53;8.95;;;5.75;;
19026;SDS011;9646;52.034;5.554;2022-10-04T00:45:25;12.88;;;6.38;;
19026;SDS011;9646;52.034;5.554;2022-10-04T00:47:57;13.68;;;6.72;;
19026;SDS011;9646;52.034;5.554;2022-10-04T00:50:27;11.13;;;6.93;;
19026;SDS011;9646;52.034;5.554;2022-10-04T00:52:57;10.55;;;6.30;;
19026;SDS011;9646;52.034;5.554;2022-10-04T00:55:26;12.35;;;6.15;;
19026;SDS011;9646;52.034;5.554;2022-10-04T00:57:59;11.15;;;7.03;;
19026;SDS011;9646;52.034;5.554;2022-10-04T01:00:27;9.35;;;6.45;;
19026;SDS011;9646;52.034;5.554;2022-10-04T01:02:57;9.50;;;6.47;;
19026;SDS011;9646;52.034;5.554;2022-10-04T01:05:27;11.60;;;5.93;;
19026;SDS011;9646;52.034;5.554;2022-10-04T01:08:02;11.63;;;6.40;;
19026;SDS011;9646;52.034;5.554;2022-10-04T01:10:30;11.45;;;6.70;;
19026;SDS011;9646;52.034;5.554;2022-10-04T01:12:59;9.93;;;5.47;;
19026;SDS011;9646;52.034;5.554;2022-10-04T01:15:30;12.13;;;5.80;;
19026;SDS011;9646;52.034;5.554;2022-10-04T01:18:08;13.20;;;6.30;;
19026;SDS011;9646;52.034;5.554;2022-10-04T01:20:37;9.40;;;5.32;;
19026;SDS011;9646;52.034;5.554;2022-10-04T01:23:06;10.05;;;5.43;;
19026;SDS011;9646;52.034;5.554;2022-10-04T01:25:41;12.27;;;5.68;;
19026;SDS011;9646;52.034;5.554;2022-10-04T01:28:09;11.20;;;6.18;;
19026;SDS011;9646;52.034;5.554;2022-10-04T01:30:36;8.02;;;4.60;;
19026;SDS011;9646;52.034;5.554;2022-10-04T01:33:03;12.57;;;5.70;;
19026;SDS011;9646;52.034;5.554;2022-10-04T01:35:31;9.52;;;4.90;;
19026;SDS011;9646;52.034;5.554;2022-10-04T01:37:59;10.25;;;5.07;;
19026;SDS011;9646;52.034;5.554;2022-10-04T01:40:28;11.55;;;5.28;;
19026;SDS011;9646;52.034;5.554;2022-10-04T01:42:57;8.57;;;5.57;;
19026;SDS011;9646;52.034;5.554;2022-10-04T01:45:28;9.40;;;5.03;;
19026;SDS011;9646;52.034;5.554;2022-10-04T01:47:57;8.68;;;5.05;;
19026;SDS011;9646;52.034;5.554;2022-10-04T01:50:26;9.82;;;4.85;;
19026;SDS011;9646;52.034;5.554;2022-10-04T01:52:55;12.15;;;6.00;;
19026;SDS011;9646;52.034;5.554;2022-10-04T01:55:26;9.82;;;5.63;;
19026;SDS011;9646;52.034;5.554;2022-10-04T01:57:56;12.63;;;5.93;;
19026;SDS011;9646;52.034;5.554;2022-10-04T02:00:25;9.57;;;5.32;;
19026;SDS011;9646;52.034;5.554;2022-10-04T02:02:53;9.95;;;5.80;;
19026;SDS011;9646;52.034;5.554;2022-10-04T02:05:25;7.80;;;5.22;;
19026;SDS011;9646;52.034;5.554;2022-10-04T02:07:54;7.97;;;4.53;;
19026;SDS011;9646;52.034;5.554;2022-10-04T02:10:22;8.52;;;5.10;;
19026;SDS011;9646;52.034;5.554;2022-10-04T02:12:51;9.20;;;5.47;;
19026;SDS011;9646;52.034;5.554;2022-10-04T02:15:21;7.85;;;4.80;;
19026;SDS011;9646;52.034;5.554;2022-10-04T02:17:51;8.50;;;5.57;;
19026;SDS011;9646;52.034;5.554;2022-10-04T02:20:20;8.98;;;5.28;;
19026;SDS011;9646;52.034;5.554;2022-10-04T02:22:49;9.52;;;5.15;;
19026;SDS011;9646;52.034;5.554;2022-10-04T02:25:18;11.68;;;5.53;;
19026;SDS011;9646;52.034;5.554;2022-10-04T02:27:45;8.35;;;4.93;;
19026;SDS011;9646;52.034;5.554;2022-10-04T02:30:12;9.50;;;5.65;;
19026;SDS011;9646;52.034;5.554;2022-10-04T02:32:41;7.78;;;5.90;;
19026;SDS011;9646;52.034;5.554;2022-10-04T02:35:25;11.38;;;5.60;;
19026;SDS011;9646;52.034;5.554;2022-10-04T02:37:55;15.95;;;5.72;;
19026;SDS011;9646;52.034;5.554;2022-10-04T02:40:26;11.10;;;5.95;;
19026;SDS011;9646;52.034;5.554;2022-10-04T02:42:56;9.02;;;4.90;;
19026;SDS011;9646;52.034;5.554;2022-10-04T02:45:27;10.15;;;5.40;;
19026;SDS011;9646;52.034;5.554;2022-10-04T02:47:57;11.75;;;5.78;;
19026;SDS011;9646;52.034;5.554;2022-10-04T02:50:27;7.18;;;5.15;;
19026;SDS011;9646;52.034;5.554;2022-10-04T02:52:56;9.43;;;5.75;;
19026;SDS011;9646;52.034;5.554;2022-10-04T02:55:25;7.03;;;4.60;;
19026;SDS011;9646;52.034;5.554;2022-10-04T02:57:53;10.35;;;5.47;;
19026;SDS011;9646;52.034;5.554;2022-10-04T03:00:21;8.73;;;5.70;;
19026;SDS011;9646;52.034;5.554;2022-10-04T03:05:35;6.72;;;4.47;;
19026;SDS011;9646;52.034;5.554;2022-10-04T03:08:04;9.30;;;5.20;;
19026;SDS011;9646;52.034;5.554;2022-10-04T03:10:31;8.80;;;4.68;;
19026;SDS011;9646;52.034;5.554;2022-10-04T03:12:59;9.82;;;4.65;;
19026;SDS011;9646;52.034;5.554;2022-10-04T03:15:26;8.57;;;4.90;;
19026;SDS011;9646;52.034;5.554;2022-10-04T03:17:56;8.95;;;4.90;;
19026;SDS011;9646;52.034;5.554;2022-10-04T03:20:23;6.60;;;4.68;;
19026;SDS011;9646;52.034;5.554;2022-10-04T03:22:52;8.98;;;5.13;;
19026;SDS011;9646;52.034;5.554;2022-10-04T03:25:21;9.35;;;5.25;;
19026;SDS011;9646;52.034;5.554;2022-10-04T03:27:50;12.48;;;5.57;;
19026;SDS011;9646;52.034;5.554;2022-10-04T03:30:18;9.02;;;4.63;;
19026;SDS011;9646;52.034;5.554;2022-10-04T03:32:45;7.85;;;4.40;;
19026;SDS011;9646;52.034;5.554;2022-10-04T03:35:15;8.20;;;3.67;;
19026;SDS011;9646;52.034;5.554;2022-10-04T03:37:43;5.38;;;3.42;;
19026;SDS011;9646;52.034;5.554;2022-10-04T03:40:12;6.53;;;4.25;;
19026;SDS011;9646;52.034;5.554;2022-10-04T03:42:40;6.78;;;4.28;;
19026;SDS011;9646;52.034;5.554;2022-10-04T03:45:10;7.65;;;3.95;;
19026;SDS011;9646;52.034;5.554;2022-10-04T03:47:41;6.07;;;4.00;;
19026;SDS011;9646;52.034;5.554;2022-10-04T03:50:11;4.78;;;3.45;;
19026;SDS011;9646;52.034;5.554;2022-10-04T03:52:40;6.38;;;4.10;;
19026;SDS011;9646;52.034;5.554;2022-10-04T03:55:09;7.22;;;4.15;;
19026;SDS011;9646;52.034;5.554;2022-10-04T03:57:39;10.90;;;3.88;;
19026;SDS011;9646;52.034;5.554;2022-10-04T04:00:07;6.53;;;3.70;;
19026;SDS011;9646;52.034;5.554;2022-10-04T04:02:35;5.20;;;3.65;;
19026;SDS011;9646;52.034;5.554;2022-10-04T04:05:05;6.15;;;3.88;;
19026;SDS011;9646;52.034;5.554;2022-10-04T04:07:36;8.65;;;4.13;;
19026;SDS011;9646;52.034;5.554;2022-10-04T04:10:05;5.65;;;3.90;;
19026;SDS011;9646;52.034;5.554;2022-10-04T04:12:38;6.70;;;3.90;;
19026;SDS011;9646;52.034;5.554;2022-10-04T04:15:08;5.07;;;3.67;;
19026;SDS011;9646;52.034;5.554;2022-10-04T04:17:39;6.28;;;4.18;;
19026;SDS011;9646;52.034;5.554;2022-10-04T04:20:19;6.70;;;4.07;;
19026;SDS011;9646;52.034;5.554;2022-10-04T04:22:51;8.32;;;4.47;;
19026;SDS011;9646;52.034;5.554;2022-10-04T04:25:20;6.93;;;4.25;;
19026;SDS011;9646;52.034;5.554;2022-10-04T04:27:49;7.85;;;4.47;;
19026;SDS011;9646;52.034;5.554;2022-10-04T04:30:20;9.43;;;4.63;;
19026;SDS011;9646;52.034;5.554;2022-10-04T04:32:47;6.68;;;4.35;;
19026;SDS011;9646;52.034;5.554;2022-10-04T04:35:22;5.15;;;3.90;;
19026;SDS011;9646;52.034;5.554;2022-10-04T04:38:12;7.43;;;5.50;;
19026;SDS011;9646;52.034;5.554;2022-10-04T04:40:40;8.52;;;4.82;;
19026;SDS011;9646;52.034;5.554;2022-10-04T04:43:08;5.60;;;3.92;;
19026;SDS011;9646;52.034;5.554;2022-10-04T04:45:39;5.85;;;4.35;;
19026;SDS011;9646;52.034;5.554;2022-10-04T04:48:07;6.75;;;4.18;;
19026;SDS011;9646;52.034;5.554;2022-10-04T04:50:37;4.45;;;3.75;;
19026;SDS011;9646;52.034;5.554;2022-10-04T04:53:06;5.72;;;4.40;;
19026;SDS011;9646;52.034;5.554;2022-10-04T04:55:35;7.78;;;4.65;;
19026;SDS011;9646;52.034;5.554;2022-10-04T04:58:04;6.70;;;4.47;;
19026;SDS011;9646;52.034;5.554;2022-10-04T05:00:32;7.35;;;4.15;;
19026;SDS011;9646;52.034;5.554;2022-10-04T05:03:03;6.15;;;4.43;;
19026;SDS011;9646;52.034;5.554;2022-10-04T05:05:31;7.63;;;4.50;;
19026;SDS011;9646;52.034;5.554;2022-10-04T05:08:03;7.50;;;5.13;;
19026;SDS011;9646;52.034;5.554;2022-10-04T05:10:36;9.10;;;5.07;;
19026;SDS011;9646;52.034;5.554;2022-10-04T05:13:03;10.95;;;5.07;;
19026;SDS011;9646;52.034;5.554;2022-10-04T05:15:33;8.27;;;5.57;;
19026;SDS011;9646;52.034;5.554;2022-10-04T05:18:11;8.73;;;5.70;;
19026;SDS011;9646;52.034;5.554;2022-10-04T05:20:42;11.38;;;7.00;;
19026;SDS011;9646;52.034;5.554;2022-10-04T05:23:12;9.18;;;6.25;;
19026;SDS011;9646;52.034;5.554;2022-10-04T05:25:39;9.35;;;5.80;;
19026;SDS011;9646;52.034;5.554;2022-10-04T05:28:08;13.07;;;6.00;;
19026;SDS011;9646;52.034;5.554;2022-10-04T05:30:42;8.23;;;5.13;;
19026;SDS011;9646;52.034;5.554;2022-10-04T05:33:16;9.38;;;5.78;;
19026;SDS011;9646;52.034;5.554;2022-10-04T05:35:51;12.02;;;6.35;;
19026;SDS011;9646;52.034;5.554;2022-10-04T05:38:23;8.50;;;6.28;;
19026;SDS011;9646;52.034;5.554;2022-10-04T05:40:52;9.55;;;6.00;;
19026;SDS011;9646;52.034;5.554;2022-10-04T05:43:24;11.82;;;6.65;;
19026;SDS011;9646;52.034;5.554;2022-10-04T05:48:57;7.03;;;5.20;;
19026;SDS011;9646;52.034;5.554;2022-10-04T05:51:25;9.80;;;5.50;;
19026;SDS011;9646;52.034;5.554;2022-10-04T05:53:53;7.88;;;5.35;;
19026;SDS011;9646;52.034;5.554;2022-10-04T05:56:29;9.88;;;4.95;;
19026;SDS011;9646;52.034;5.554;2022-10-04T05:59:00;7.63;;;5.43;;
19026;SDS011;9646;52.034;5.554;2022-10-04T06:01:33;11.35;;;6.20;;
19026;SDS011;9646;52.034;5.554;2022-10-04T06:04:17;12.38;;;7.70;;
19026;SDS011;9646;52.034;5.554;2022-10-04T06:06:49;8.30;;;5.43;;
19026;SDS011;9646;52.034;5.554;2022-10-04T06:09:24;8.95;;;6.38;;
19026;SDS011;9646;52.034;5.554;2022-10-04T06:11:56;12.90;;;6.20;;
19026;SDS011;9646;52.034;5.554;2022-10-04T06:14:47;11.05;;;6.65;;
19026;SDS011;9646;52.034;5.554;2022-10-04T06:17:22;11.73;;;6.53;;
19026;SDS011;9646;52.034;5.554;2022-10-04T06:19:55;11.43;;;6.18;;
19026;SDS011;9646;52.034;5.554;2022-10-04T06:22:25;9.63;;;5.60;;
19026;SDS011;9646;52.034;5.554;2022-10-04T06:24:55;10.70;;;5.95;;
19026;SDS011;9646;52.034;5.554;2022-10-04T06:27:25;10.27;;;5.50;;
19026;SDS011;9646;52.034;5.554;2022-10-04T06:29:55;9.88;;;5.03;;
19026;SDS011;9646;52.034;5.554;2022-10-04T06:32:27;7.43;;;4.97;;
19026;SDS011;9646;52.034;5.554;2022-10-04T06:37:49;10.00;;;5.95;;
19026;SDS011;9646;52.034;5.554;2022-10-04T06:43:14;11.40;;;5.20;;
19026;SDS011;9646;52.034;5.554;2022-10-04T06:45:51;7.95;;;5.32;;
19026;SDS011;9646;52.034;5.554;2022-10-04T06:51:06;10.57;;;5.75;;
19026;SDS011;9646;52.034;5.554;2022-10-04T06:53:41;10.15;;;5.97;;
19026;SDS011;9646;52.034;5.554;2022-10-04T06:56:23;9.43;;;5.65;;
19026;SDS011;9646;52.034;5.554;2022-10-04T06:58:56;10.43;;;5.72;;
19026;SDS011;9646;52.034;5.554;2022-10-04T07:01:29;12.93;;;7.88;;
19026;SDS011;9646;52.034;5.554;2022-10-04T07:03:59;10.38;;;6.70;;
19026;SDS011;9646;52.034;5.554;2022-10-04T07:06:28;9.93;;;6.53;;
19026;SDS011;9646;52.034;5.554;2022-10-04T07:08:58;10.55;;;5.63;;
19026;SDS011;9646;52.034;5.554;2022-10-04T07:11:30;11.20;;;6.75;;
19026;SDS011;9646;52.034;5.554;2022-10-04T07:13:59;12.63;;;6.40;;
19026;SDS011;9646;52.034;5.554;2022-10-04T07:16:32;9.65;;;5.55;;
19026;SDS011;9646;52.034;5.554;2022-10-04T07:19:10;11.52;;;6.22;;
19026;SDS011;9646;52.034;5.554;2022-10-04T07:21:44;11.85;;;5.57;;
19026;SDS011;9646;52.034;5.554;2022-10-04T07:24:17;10.93;;;5.70;;
19026;SDS011;9646;52.034;5.554;2022-10-04T07:26:47;10.15;;;6.43;;
19026;SDS011;9646;52.034;5.554;2022-10-04T07:29:16;8.15;;;5.47;;
19026;SDS011;9646;52.034;5.554;2022-10-04T07:31:46;6.15;;;5.20;;
19026;SDS011;9646;52.034;5.554;2022-10-04T07:34:16;9.57;;;5.40;;
19026;SDS011;9646;52.034;5.554;2022-10-04T07:36:47;9.48;;;5.32;;
19026;SDS011;9646;52.034;5.554;2022-10-04T07:39:20;13.18;;;7.50;;
19026;SDS011;9646;52.034;5.554;2022-10-04T07:41:57;12.55;;;6.95;;
19026;SDS011;9646;52.034;5.554;2022-10-04T07:44:34;10.93;;;6.63;;
19026;SDS011;9646;52.034;5.554;2022-10-04T07:49:42;9.07;;;5.35;;
19026;SDS011;9646;52.034;5.554;2022-10-04T07:54:55;11.25;;;6.28;;
19026;SDS011;9646;52.034;5.554;2022-10-04T07:57:27;11.18;;;6.38;;
19026;SDS011;9646;52.034;5.554;2022-10-04T07:59:57;20.73;;;8.05;;
19026;SDS011;9646;52.034;5.554;2022-10-04T08:02:30;16.80;;;7.50;;
19026;SDS011;9646;52.034;5.554;2022-10-04T08:05:03;13.60;;;6.22;;
19026;SDS011;9646;52.034;5.554;2022-10-04T08:07:38;9.52;;;6.85;;
19026;SDS011;9646;52.034;5.554;2022-10-04T08:10:12;15.48;;;7.55;;
19026;SDS011;9646;52.034;5.554;2022-10-04T08:12:49;17.65;;;7.22;;
19026;SDS011;9646;52.034;5.554;2022-10-04T08:15:24;12.05;;;6.50;;
19026;SDS011;9646;52.034;5.554;2022-10-04T08:17:56;12.48;;;6.63;;
19026;SDS011;9646;52.034;5.554;2022-10-04T08:20:31;12.57;;;6.68;;
19026;SDS011;9646;52.034;5.554;2022-10-04T08:23:04;11.68;;;6.82;;
19026;SDS011;9646;52.034;5.554;2022-10-04T08:25:36;16.52;;;7.10;;
19026;SDS011;9646;52.034;5.554;2022-10-04T08:28:09;11.30;;;6.18;;
19026;SDS011;9646;52.034;5.554;2022-10-04T08:31:07;12.85;;;6.70;;
19026;SDS011;9646;52.034;5.554;2022-10-04T08:36:23;10.77;;;6.43;;
19026;SDS011;9646;52.034;5.554;2022-10-04T08:38:53;10.88;;;6.50;;
19026;SDS011;9646;52.034;5.554;2022-10-04T08:49:49;10.10;;;5.82;;
19026;SDS011;9646;52.034;5.554;2022-10-04T08:52:28;11.90;;;6.63;;
19026;SDS011;9646;52.034;5.554;2022-10-04T08:55:16;12.23;;;6.63;;
19026;SDS011;9646;52.034;5.554;2022-10-04T09:00:48;11.45;;;6.80;;
19026;SDS011;9646;52.034;5.554;2022-10-04T09:06:12;13.32;;;6.57;;
19026;SDS011;9646;52.034;5.554;2022-10-04T09:08:59;13.15;;;6.72;;
19026;SDS011;9646;52.034;5.554;2022-10-04T09:14:30;11.13;;;6.57;;
19026;SDS011;9646;52.034;5.554;2022-10-04T09:17:02;11.77;;;6.28;;
19026;SDS011;9646;52.034;5.554;2022-10-04T09:19:37;13.88;;;6.95;;
19026;SDS011;9646;52.034;5.554;2022-10-04T09:22:15;11.27;;;6.70;;
19026;SDS011;9646;52.034;5.554;2022-10-04T09:24:57;12.00;;;6.60;;
19026;SDS011;9646;52.034;5.554;2022-10-04T09:27:34;12.38;;;6.45;;
19026;SDS011;9646;52.034;5.554;2022-10-04T09:30:11;15.10;;;7.57;;
19026;SDS011;9646;52.034;5.554;2022-10-04T09:32:53;14.98;;;6.53;;
19026;SDS011;9646;52.034;5.554;2022-10-04T09:38:22;12.02;;;6.68;;
19026;SDS011;9646;52.034;5.554;2022-10-04T09:43:57;12.25;;;6.40;;
19026;SDS011;9646;52.034;5.554;2022-10-04T09:46:37;10.55;;;6.30;;
19026;SDS011;9646;52.034;5.554;2022-10-04T09:49:11;10.95;;;6.05;;
19026;SDS011;9646;52.034;5.554;2022-10-04T09:54:40;11.57;;;6.32;;
19026;SDS011;9646;52.034;5.554;2022-10-04T09:57:21;13.35;;;6.50;;
19026;SDS011;9646;52.034;5.554;2022-10-04T09:59:56;10.80;;;6.13;;
19026;SDS011;9646;52.034;5.554;2022-10-04T10:02:35;9.77;;;6.22;;
19026;SDS011;9646;52.034;5.554;2022-10-04T10:07:50;11.50;;;5.75;;
19026;SDS011;9646;52.034;5.554;2022-10-04T10:10:23;13.18;;;6.15;;
19026;SDS011;9646;52.034;5.554;2022-10-04T10:13:18;8.52;;;5.47;;
19026;SDS011;9646;52.034;5.554;2022-10-04T10:19:07;14.05;;;6.00;;
19026;SDS011;9646;52.034;5.554;2022-10-04T10:21:46;11.50;;;5.70;;
19026;SDS011;9646;52.034;5.554;2022-10-04T10:24:30;12.52;;;6.60;;
19026;SDS011;9646;52.034;5.554;2022-10-04T10:30:16;18.65;;;10.27;;
19026;SDS011;9646;52.034;5.554;2022-10-04T10:32:59;14.35;;;7.35;;
19026;SDS011;9646;52.034;5.554;2022-10-04T10:35:33;11.07;;;5.57;;
19026;SDS011;9646;52.034;5.554;2022-10-04T10:38:15;8.50;;;5.25;;
19026;SDS011;9646;52.034;5.554;2022-10-04T10:40:52;12.02;;;6.22;;
19026;SDS011;9646;52.034;5.554;2022-10-04T10:43:30;12.57;;;5.80;;
19026;SDS011;9646;52.034;5.554;2022-10-04T10:46:04;12.40;;;6.40;;
19026;SDS011;9646;52.034;5.554;2022-10-04T10:48:42;9.27;;;5.78;;
19026;SDS011;9646;52.034;5.554;2022-10-04T10:51:12;12.55;;;6.13;;
19026;SDS011;9646;52.034;5.554;2022-10-04T10:56:35;15.80;;;6.18;;
19026;SDS011;9646;52.034;5.554;2022-10-04T11:02:01;13.23;;;7.45;;
19026;SDS011;9646;52.034;5.554;2022-10-04T11:04:42;11.40;;;5.68;;
19026;SDS011;9646;52.034;5.554;2022-10-04T11:07:25;14.20;;;5.30;;
19026;SDS011;9646;52.034;5.554;2022-10-04T11:12:46;7.18;;;4.30;;
19026;SDS011;9646;52.034;5.554;2022-10-04T11:23:56;10.13;;;5.78;;
19026;SDS011;9646;52.034;5.554;2022-10-04T11:26:40;11.32;;;5.28;;
19026;SDS011;9646;52.034;5.554;2022-10-04T11:29:14;10.80;;;5.95;;
19026;SDS011;9646;52.034;5.554;2022-10-04T11:32:02;11.60;;;5.57;;
19026;SDS011;9646;52.034;5.554;2022-10-04T11:34:47;9.98;;;5.28;;
19026;SDS011;9646;52.034;5.554;2022-10-04T11:37:20;10.35;;;5.60;;
19026;SDS011;9646;52.034;5.554;2022-10-04T11:40:00;14.93;;;5.53;;
19026;SDS011;9646;52.034;5.554;2022-10-04T11:42:36;9.95;;;5.28;;
19026;SDS011;9646;52.034;5.554;2022-10-04T11:48:10;6.65;;;4.28;;
19026;SDS011;9646;52.034;5.554;2022-10-04T11:50:46;10.00;;;5.10;;
19026;SDS011;9646;52.034;5.554;2022-10-04T11:56:27;9.52;;;4.63;;
19026;SDS011;9646;52.034;5.554;2022-10-04T11:59:10;8.82;;;5.00;;
19026;SDS011;9646;52.034;5.554;2022-10-04T12:01:57;12.15;;;4.90;;
19026;SDS011;9646;52.034;5.554;2022-10-04T12:04:42;10.38;;;4.78;;
19026;SDS011;9646;52.034;5.554;2022-10-04T12:07:27;11.95;;;4.68;;
19026;SDS011;9646;52.034;5.554;2022-10-04T12:10:00;8.93;;;5.57;;
19026;SDS011;9646;52.034;5.554;2022-10-04T12:12:36;10.15;;;5.20;;
19026;SDS011;9646;52.034;5.554;2022-10-04T12:15:24;9.93;;;4.78;;
19026;SDS011;9646;52.034;5.554;2022-10-04T12:23:45;12.38;;;6.90;;
19026;SDS011;9646;52.034;5.554;2022-10-04T12:29:10;8.75;;;4.63;;
19026;SDS011;9646;52.034;5.554;2022-10-04T12:31:42;8.55;;;4.47;;
19026;SDS011;9646;52.034;5.554;2022-10-04T12:34:13;7.57;;;4.55;;
19026;SDS011;9646;52.034;5.554;2022-10-04T12:36:50;8.50;;;4.18;;
19026;SDS011;9646;52.034;5.554;2022-10-04T12:39:26;7.15;;;4.60;;
19026;SDS011;9646;52.034;5.554;2022-10-04T12:42:00;6.50;;;3.38;;
19026;SDS011;9646;52.034;5.554;2022-10-04T12:44:37;8.60;;;4.18;;
19026;SDS011;9646;52.034;5.554;2022-10-04T12:47:34;9.10;;;4.90;;
19026;SDS011;9646;52.034;5.554;2022-10-04T12:50:07;9.82;;;4.82;;
19026;SDS011;9646;52.034;5.554;2022-10-04T12:52:39;8.52;;;4.80;;
19026;SDS011;9646;52.034;5.554;2022-10-04T12:55:13;9.10;;;4.18;;
19026;SDS011;9646;52.034;5.554;2022-10-04T12:57:44;9.35;;;4.13;;
19026;SDS011;9646;52.034;5.554;2022-10-04T13:00:17;9.82;;;3.72;;
19026;SDS011;9646;52.034;5.554;2022-10-04T13:02:52;8.65;;;4.60;;
19026;SDS011;9646;52.034;5.554;2022-10-04T13:05:23;6.82;;;4.22;;
19026;SDS011;9646;52.034;5.554;2022-10-04T13:08:00;8.75;;;3.85;;
19026;SDS011;9646;52.034;5.554;2022-10-04T13:10:32;5.68;;;3.20;;
19026;SDS011;9646;52.034;5.554;2022-10-04T13:13:23;7.85;;;3.13;;
19026;SDS011;9646;52.034;5.554;2022-10-04T13:15:54;6.22;;;4.07;;
19026;SDS011;9646;52.034;5.554;2022-10-04T13:18:25;9.88;;;3.72;;
19026;SDS011;9646;52.034;5.554;2022-10-04T13:20:58;8.07;;;4.07;;
19026;SDS011;9646;52.034;5.554;2022-10-04T13:23:30;9.40;;;4.63;;
19026;SDS011;9646;52.034;5.554;2022-10-04T13:26:14;8.10;;;3.83;;
19026;SDS011;9646;52.034;5.554;2022-10-04T13:28:49;9.77;;;4.00;;
19026;SDS011;9646;52.034;5.554;2022-10-04T13:31:21;7.65;;;4.18;;
19026;SDS011;9646;52.034;5.554;2022-10-04T13:33:52;5.68;;;3.60;;
19026;SDS011;9646;52.034;5.554;2022-10-04T13:36:23;5.50;;;3.42;;
19026;SDS011;9646;52.034;5.554;2022-10-04T13:38:59;10.60;;;3.80;;
19026;SDS011;9646;52.034;5.554;2022-10-04T13:41:37;15.55;;;9.40;;
19026;SDS011;9646;52.034;5.554;2022-10-04T13:44:15;8.38;;;5.28;;
19026;SDS011;9646;52.034;5.554;2022-10-04T13:46:52;6.25;;;3.35;;
19026;SDS011;9646;52.034;5.554;2022-10-04T13:49:26;7.43;;;3.45;;
19026;SDS011;9646;52.034;5.554;2022-10-04T13:55:00;10.60;;;4.38;;
19026;SDS011;9646;52.034;5.554;2022-10-04T13:57:56;9.38;;;4.28;;
19026;SDS011;9646;52.034;5.554;2022-10-04T14:00:32;6.85;;;3.50;;
19026;SDS011;9646;52.034;5.554;2022-10-04T14:03:12;8.07;;;3.78;;
19026;SDS011;9646;52.034;5.554;2022-10-04T14:05:52;5.25;;;3.17;;
19026;SDS011;9646;52.034;5.554;2022-10-04T14:08:35;10.55;;;3.70;;
19026;SDS011;9646;52.034;5.554;2022-10-04T14:14:08;6.40;;;3.35;;
19026;SDS011;9646;52.034;5.554;2022-10-04T14:16:54;7.63;;;3.60;;
19026;SDS011;9646;52.034;5.554;2022-10-04T14:19:36;10.85;;;4.07;;
19026;SDS011;9646;52.034;5.554;2022-10-04T14:22:12;5.95;;;3.80;;
19026;SDS011;9646;52.034;5.554;2022-10-04T14:24:56;6.57;;;3.53;;
19026;SDS011;9646;52.034;5.554;2022-10-04T14:30:23;7.18;;;3.53;;
19026;SDS011;9646;52.034;5.554;2022-10-04T14:33:22;6.80;;;3.35;;
19026;SDS011;9646;52.034;5.554;2022-10-04T14:36:01;12.45;;;4.03;;
19026;SDS011;9646;52.034;5.554;2022-10-04T14:38:37;12.23;;;5.80;;
19026;SDS011;9646;52.034;5.554;2022-10-04T14:41:10;8.88;;;4.28;;
19026;SDS011;9646;52.034;5.554;2022-10-04T14:43:51;7.43;;;3.42;;
19026;SDS011;9646;52.034;5.554;2022-10-04T14:46:27;6.55;;;3.92;;
19026;SDS011;9646;52.034;5.554;2022-10-04T14:48:59;4.05;;;2.65;;
19026;SDS011;9646;52.034;5.554;2022-10-04T14:51:43;9.98;;;4.47;;
19026;SDS011;9646;52.034;5.554;2022-10-04T14:54:14;8.25;;;3.65;;
19026;SDS011;9646;52.034;5.554;2022-10-04T14:56:55;6.80;;;3.92;;
19026;SDS011;9646;52.034;5.554;2022-10-04T14:59:38;7.25;;;3.33;;
19026;SDS011;9646;52.034;5.554;2022-10-04T15:02:22;7.82;;;3.28;;
19026;SDS011;9646;52.034;5.554;2022-10-04T15:05:10;6.72;;;3.28;;
19026;SDS011;9646;52.034;5.554;2022-10-04T15:07:47;5.63;;;3.50;;
19026;SDS011;9646;52.034;5.554;2022-10-04T15:10:16;5.47;;;3.65;;
19026;SDS011;9646;52.034;5.554;2022-10-04T15:12:55;8.20;;;4.15;;
19026;SDS011;9646;52.034;5.554;2022-10-04T15:18:10;9.40;;;4.32;;
19026;SDS011;9646;52.034;5.554;2022-10-04T15:20:49;10.93;;;3.83;;
19026;SDS011;9646;52.034;5.554;2022-10-04T15:23:27;8.70;;;4.68;;
19026;SDS011;9646;52.034;5.554;2022-10-04T15:25:58;7.95;;;3.50;;
19026;SDS011;9646;52.034;5.554;2022-10-04T15:28:37;9.73;;;3.70;;
19026;SDS011;9646;52.034;5.554;2022-10-04T15:31:09;8.00;;;3.72;;
19026;SDS011;9646;52.034;5.554;2022-10-04T15:33:42;7.88;;;4.18;;
19026;SDS011;9646;52.034;5.554;2022-10-04T15:36:14;6.50;;;4.15;;
19026;SDS011;9646;52.034;5.554;2022-10-04T15:38:46;7.10;;;3.90;;
19026;SDS011;9646;52.034;5.554;2022-10-04T15:41:18;8.20;;;3.90;;
19026;SDS011;9646;52.034;5.554;2022-10-04T15:44:03;7.43;;;4.20;;
19026;SDS011;9646;52.034;5.554;2022-10-04T15:46:40;6.88;;;3.40;;
19026;SDS011;9646;52.034;5.554;2022-10-04T15:49:16;8.15;;;4.18;;
19026;SDS011;9646;52.034;5.554;2022-10-04T15:51:59;11.95;;;4.82;;
19026;SDS011;9646;52.034;5.554;2022-10-04T15:54:45;11.77;;;4.70;;
19026;SDS011;9646;52.034;5.554;2022-10-04T15:57:23;6.00;;;4.05;;
19026;SDS011;9646;52.034;5.554;2022-10-04T15:59:55;9.52;;;3.92;;
19026;SDS011;9646;52.034;5.554;2022-10-04T16:02:29;5.68;;;3.47;;
19026;SDS011;9646;52.034;5.554;2022-10-04T16:05:02;7.20;;;3.30;;
19026;SDS011;9646;52.034;5.554;2022-10-04T16:07:37;8.57;;;4.15;;
19026;SDS011;9646;52.034;5.554;2022-10-04T16:10:17;4.95;;;3.40;;
19026;SDS011;9646;52.034;5.554;2022-10-04T16:13:03;7.32;;;3.88;;
19026;SDS011;9646;52.034;5.554;2022-10-04T16:15:33;5.70;;;3.75;;
19026;SDS011;9646;52.034;5.554;2022-10-04T16:18:04;6.10;;;3.05;;
19026;SDS011;9646;52.034;5.554;2022-10-04T16:23:23;10.77;;;5.57;;
19026;SDS011;9646;52.034;5.554;2022-10-04T16:25:53;6.80;;;3.45;;
19026;SDS011;9646;52.034;5.554;2022-10-04T16:28:33;5.53;;;2.83;;
19026;SDS011;9646;52.034;5.554;2022-10-04T16:31:17;6.30;;;3.67;;
19026;SDS011;9646;52.034;5.554;2022-10-04T16:33:50;5.53;;;3.20;;
19026;SDS011;9646;52.034;5.554;2022-10-04T16:36:20;7.93;;;5.32;;
19026;SDS011;9646;52.034;5.554;2022-10-04T16:38:50;10.75;;;6.20;;
19026;SDS011;9646;52.034;5.554;2022-10-04T16:41:39;6.85;;;4.07;;
19026;SDS011;9646;52.034;5.554;2022-10-04T16:44:21;6.88;;;3.85;;
19026;SDS011;9646;52.034;5.554;2022-10-04T16:46:49;6.65;;;3.10;;
19026;SDS011;9646;52.034;5.554;2022-10-04T16:49:19;8.10;;;3.90;;
19026;SDS011;9646;52.034;5.554;2022-10-04T16:51:55;7.45;;;3.25;;
19026;SDS011;9646;52.034;5.554;2022-10-04T16:54:30;7.47;;;3.97;;
19026;SDS011;9646;52.034;5.554;2022-10-04T16:57:17;8.45;;;4.47;;
19026;SDS011;9646;52.034;5.554;2022-10-04T16:59:48;7.97;;;3.60;;
19026;SDS011;9646;52.034;5.554;2022-10-04T17:02:20;7.20;;;3.55;;
19026;SDS011;9646;52.034;5.554;2022-10-04T17:07:36;7.32;;;5.10;;
19026;SDS011;9646;52.034;5.554;2022-10-04T17:10:17;10.32;;;4.55;;
19026;SDS011;9646;52.034;5.554;2022-10-04T17:12:47;8.70;;;3.45;;
19026;SDS011;9646;52.034;5.554;2022-10-04T17:15:23;5.53;;;3.47;;
19026;SDS011;9646;52.034;5.554;2022-10-04T17:17:54;9.88;;;4.10;;
19026;SDS011;9646;52.034;5.554;2022-10-04T17:20:25;6.70;;;3.75;;
19026;SDS011;9646;52.034;5.554;2022-10-04T17:22:57;4.15;;;3.22;;
19026;SDS011;9646;52.034;5.554;2022-10-04T17:25:27;7.72;;;4.15;;
19026;SDS011;9646;52.034;5.554;2022-10-04T17:27:56;9.93;;;4.10;;